createdAt,value
2019-03-27T00:02:08.207Z,20.07
2019-03-27T00:04:38.028Z,16.67
2019-03-27T00:07:07.683Z,17.43
2019-03-27T00:09:38.062Z,18.10
2019-03-27T00:12:07.674Z,18.70
2019-03-27T00:14:38.413Z,22.27
2019-03-27T00:17:08.055Z,15.30
2019-03-27T00:19:37.963Z,7.90
2019-03-27T00:22:07.534Z,22.53
2019-03-27T00:24:37.497Z,16.67
2019-03-27T00:27:08.168Z,15.33
2019-03-27T00:29:37.688Z,15.90
2019-03-27T00:32:08.578Z,18.87
2019-03-27T00:34:38.544Z,27.83
2019-03-27T00:37:09.001Z,11.17
2019-03-27T00:39:38.733Z,19.37
2019-03-27T00:42:08.623Z,15.47
2019-03-27T00:44:38.496Z,16.47
2019-03-27T00:47:08.469Z,16.00
2019-03-27T00:49:39.638Z,13.60
2019-03-27T00:52:09.952Z,16.50
2019-03-27T00:54:39.565Z,19.30
2019-03-27T00:57:09.408Z,19.07
2019-03-27T00:59:38.999Z,19.53
2019-03-27T01:02:08.928Z,17.80
2019-03-27T01:04:38.436Z,20.37
2019-03-27T01:07:08.329Z,17.23
2019-03-27T01:09:38.225Z,18.67
2019-03-27T01:12:07.745Z,15.27
2019-03-27T01:14:37.345Z,13.93
2019-03-27T01:17:07.599Z,18.27
2019-03-27T01:19:37.573Z,18.80
2019-03-27T01:22:07.610Z,15.60
2019-03-27T01:24:37.278Z,16.43
2019-03-27T01:27:07.551Z,12.90
2019-03-27T01:29:37.481Z,13.63
2019-03-27T01:32:08.958Z,25.90
2019-03-27T01:34:38.494Z,21.50
2019-03-27T01:37:08.024Z,18.80
2019-03-27T01:39:37.741Z,18.67
2019-03-27T01:42:07.462Z,18.03
2019-03-27T01:44:37.582Z,16.63
2019-03-27T01:47:07.161Z,21.27
2019-03-27T01:49:37.201Z,15.53
2019-03-27T01:52:08.179Z,22.40
2019-03-27T01:54:38.665Z,20.90
2019-03-27T01:57:08.193Z,17.37
2019-03-27T01:59:37.771Z,26.50
2019-03-27T02:02:07.308Z,20.70
2019-03-27T02:04:36.884Z,23.50
2019-03-27T02:07:07.231Z,25.73
2019-03-27T02:09:37.085Z,14.93
2019-03-27T02:12:07.148Z,20.83
2019-03-27T02:14:36.954Z,24.17
2019-03-27T02:17:06.678Z,20.17
2019-03-27T02:19:36.968Z,26.73
2019-03-27T02:22:08.255Z,24.13
2019-03-27T02:24:37.913Z,23.30
2019-03-27T02:27:37.164Z,20.97
2019-03-27T02:30:08.366Z,23.33
2019-03-27T02:32:38.241Z,15.43
2019-03-27T02:35:08.018Z,18.03
2019-03-27T02:37:37.634Z,17.47
2019-03-27T02:40:07.960Z,21.40
2019-03-27T02:42:37.992Z,21.90
2019-03-27T02:45:08.025Z,15.60
2019-03-27T02:47:37.545Z,19.40
2019-03-27T02:50:07.700Z,24.00
2019-03-27T02:52:37.483Z,17.00
2019-03-27T02:55:07.568Z,27.40
2019-03-27T02:57:37.254Z,27.40
2019-03-27T03:00:12.024Z,21.87
2019-03-27T03:02:41.733Z,19.10
2019-03-27T03:05:12.251Z,20.50
2019-03-27T03:07:42.088Z,23.23
2019-03-27T03:10:12.582Z,16.63
2019-03-27T03:12:42.101Z,22.43
2019-03-27T03:15:12.211Z,23.20
2019-03-27T03:17:42.323Z,24.47
2019-03-27T03:20:12.314Z,30.47
2019-03-27T03:22:41.963Z,22.23
2019-03-27T03:25:12.072Z,27.90
2019-03-27T03:27:41.701Z,24.53
2019-03-27T03:30:11.873Z,23.53
2019-03-27T03:32:41.723Z,18.00
2019-03-27T03:35:11.960Z,18.03
2019-03-27T03:37:42.049Z,23.27
2019-03-27T03:40:13.127Z,25.20
2019-03-27T03:42:43.041Z,21.40
2019-03-27T03:45:13.088Z,26.27
2019-03-27T03:47:43.094Z,22.30
2019-03-27T03:50:37.531Z,25.70
2019-03-27T03:53:12.771Z,29.30
2019-03-27T03:55:43.012Z,19.87
2019-03-27T03:58:17.047Z,26.27
2019-03-27T04:00:47.444Z,30.50
2019-03-27T04:03:17.141Z,31.20
2019-03-27T04:05:46.710Z,32.13
2019-03-27T04:08:17.277Z,31.83
2019-03-27T04:10:46.795Z,23.07
2019-03-27T04:13:16.698Z,30.50
2019-03-27T04:15:46.720Z,25.80
2019-03-27T04:18:16.604Z,26.80
2019-03-27T04:20:46.389Z,30.47
2019-03-27T04:23:16.509Z,24.70
2019-03-27T04:26:08.380Z,28.63
2019-03-27T04:28:18.223Z,28.70
2019-03-27T04:30:48.238Z,36.23
2019-03-27T04:33:18.317Z,28.80
2019-03-27T04:35:47.851Z,30.30
2019-03-27T04:38:17.540Z,29.00
2019-03-27T04:40:47.750Z,35.30
2019-03-27T04:43:17.311Z,26.93
2019-03-27T04:45:47.452Z,28.90
2019-03-27T04:48:17.003Z,30.97
2019-03-27T04:50:47.056Z,29.00
2019-03-27T04:53:16.814Z,28.57
2019-03-27T04:55:46.777Z,25.73
2019-03-27T04:58:16.630Z,30.93
2019-03-27T05:00:46.188Z,23.03
2019-03-27T05:03:15.851Z,28.17
2019-03-27T05:05:45.934Z,28.23
2019-03-27T05:08:16.031Z,22.50
2019-03-27T05:10:45.704Z,26.73
2019-03-27T05:13:15.565Z,31.07
2019-03-27T05:15:45.455Z,26.77
2019-03-27T05:18:15.239Z,22.17
2019-03-27T05:20:45.341Z,33.67
2019-03-27T05:23:15.283Z,22.83
2019-03-27T05:25:45.200Z,28.53
2019-03-27T05:28:14.738Z,33.67
2019-03-27T05:30:44.730Z,25.27
2019-03-27T05:33:14.836Z,36.80
2019-03-27T05:35:44.558Z,27.90
2019-03-27T05:38:13.988Z,19.60
2019-03-27T05:40:44.043Z,21.00
2019-03-27T05:43:13.999Z,26.33
2019-03-27T05:45:45.594Z,27.30
2019-03-27T05:48:15.576Z,28.77
2019-03-27T05:50:45.460Z,26.20
2019-03-27T05:53:15.852Z,26.00
2019-03-27T05:55:45.438Z,22.93
2019-03-27T05:58:15.944Z,22.23
2019-03-27T06:00:45.456Z,31.40
2019-03-27T06:03:18.108Z,27.07
2019-03-27T06:05:48.222Z,34.13
2019-03-27T06:08:18.475Z,21.20
2019-03-27T06:10:52.270Z,26.47
2019-03-27T06:13:22.633Z,29.80
2019-03-27T06:15:53.226Z,26.00
2019-03-27T06:18:25.431Z,29.13
2019-03-27T06:20:55.318Z,30.27
2019-03-27T06:23:26.960Z,28.00
2019-03-27T06:25:56.449Z,30.67
2019-03-27T06:28:27.174Z,28.40
2019-03-27T06:30:57.093Z,23.37
2019-03-27T06:33:27.448Z,27.27
2019-03-27T06:35:57.059Z,30.60
2019-03-27T06:38:27.147Z,27.40
2019-03-27T06:41:04.595Z,32.50
2019-03-27T06:43:35.384Z,27.10
2019-03-27T06:46:04.973Z,33.53
2019-03-27T06:48:35.330Z,24.03
2019-03-27T06:51:04.928Z,25.50
2019-03-27T06:53:35.046Z,33.77
2019-03-27T06:56:04.873Z,28.57
2019-03-27T06:58:34.856Z,25.97
2019-03-27T07:01:06.398Z,36.57
2019-03-27T07:03:35.984Z,25.40
2019-03-27T07:06:05.647Z,17.83
2019-03-27T07:08:36.197Z,22.13
2019-03-27T07:11:06.087Z,28.17
2019-03-27T07:13:35.909Z,26.43
2019-03-27T07:16:06.003Z,26.60
2019-03-27T07:18:40.254Z,20.30
2019-03-27T07:21:07.423Z,23.67
2019-03-27T07:23:37.321Z,24.37
2019-03-27T07:26:06.722Z,16.27
2019-03-27T07:28:36.509Z,16.83
2019-03-27T07:31:06.398Z,24.00
2019-03-27T07:33:36.528Z,17.60
2019-03-27T07:36:06.410Z,13.43
2019-03-27T07:38:38.964Z,15.17
2019-03-27T07:41:08.825Z,17.20
2019-03-27T07:43:38.318Z,20.67
2019-03-27T07:46:08.087Z,16.33
2019-03-27T07:48:38.260Z,15.00
2019-03-27T07:51:07.783Z,13.63
2019-03-27T07:53:40.798Z,16.87
2019-03-27T07:56:10.314Z,18.43
2019-03-27T07:58:40.028Z,15.13
2019-03-27T08:01:09.640Z,17.17
2019-03-27T08:03:40.642Z,18.60
2019-03-27T08:06:10.488Z,24.57
2019-03-27T08:08:40.035Z,13.13
2019-03-27T08:11:13.451Z,13.03
2019-03-27T08:13:43.401Z,15.03
2019-03-27T08:16:13.469Z,10.10
2019-03-27T08:18:42.848Z,12.33
2019-03-27T08:21:12.772Z,11.47
2019-03-27T08:23:42.260Z,12.63
2019-03-27T08:26:12.242Z,17.47
2019-03-27T08:28:42.824Z,13.00
2019-03-27T08:31:12.302Z,10.33
2019-03-27T08:33:41.677Z,20.87
2019-03-27T08:36:11.428Z,15.60
2019-03-27T08:38:40.847Z,15.83
2019-03-27T08:41:10.680Z,12.80
2019-03-27T08:43:40.613Z,9.63
2019-03-27T08:46:10.548Z,9.90
2019-03-27T08:48:40.336Z,16.53
2019-03-27T08:51:10.269Z,16.33
2019-03-27T08:53:39.993Z,13.10
2019-03-27T08:56:09.577Z,10.00
2019-03-27T08:58:39.569Z,8.40
2019-03-27T09:01:09.419Z,8.40
2019-03-27T09:03:39.288Z,12.93
2019-03-27T09:06:08.871Z,11.67
2019-03-27T09:08:38.839Z,8.57
2019-03-27T09:11:08.490Z,8.20
2019-03-27T09:13:38.500Z,8.33
2019-03-27T09:16:08.690Z,8.17
2019-03-27T09:18:38.693Z,7.47
2019-03-27T09:21:10.095Z,6.27
2019-03-27T09:23:41.065Z,8.57
2019-03-27T09:26:11.194Z,5.97
2019-03-27T09:28:40.599Z,6.93
2019-03-27T09:31:14.396Z,8.83
2019-03-27T09:33:44.205Z,10.10
2019-03-27T09:36:13.735Z,10.30
2019-03-27T09:38:46.274Z,9.73
2019-03-27T09:41:16.358Z,12.10
2019-03-27T09:43:45.882Z,9.73
2019-03-27T09:46:15.425Z,8.17
2019-03-27T09:48:45.246Z,11.63
2019-03-27T09:51:15.121Z,8.53
2019-03-27T09:53:45.244Z,9.97
2019-03-27T09:56:19.361Z,13.10
2019-03-27T09:58:46.075Z,9.80
2019-03-27T10:01:15.800Z,12.33
2019-03-27T10:03:45.315Z,9.10
2019-03-27T10:06:15.022Z,11.80
2019-03-27T10:08:44.359Z,9.60
2019-03-27T10:11:13.801Z,9.10
2019-03-27T10:13:43.700Z,11.73
2019-03-27T10:16:13.854Z,7.93
2019-03-27T10:18:47.600Z,8.87
2019-03-27T10:21:17.169Z,9.47
2019-03-27T10:23:47.113Z,9.63
2019-03-27T10:26:16.799Z,10.10
2019-03-27T10:28:46.771Z,8.20
2019-03-27T10:31:17.144Z,7.70
2019-03-27T10:33:46.886Z,7.30
2019-03-27T10:36:16.768Z,6.47
2019-03-27T10:38:47.339Z,11.33
2019-03-27T10:41:17.530Z,11.07
2019-03-27T10:43:48.306Z,6.27
2019-03-27T10:46:18.101Z,9.07
2019-03-27T10:48:52.795Z,9.83
2019-03-27T10:51:19.291Z,11.63
2019-03-27T10:53:48.907Z,10.90
2019-03-27T10:56:18.713Z,5.83
2019-03-27T10:58:48.220Z,10.20
2019-03-27T11:01:18.407Z,8.23
2019-03-27T11:03:47.936Z,6.40
2019-03-27T11:06:18.568Z,9.37
2019-03-27T11:08:48.155Z,9.10
2019-03-27T11:11:17.939Z,5.70
2019-03-27T11:13:47.880Z,6.17
2019-03-27T11:16:17.483Z,6.87
2019-03-27T11:18:47.166Z,5.30
2019-03-27T11:21:16.955Z,7.27
2019-03-27T11:23:46.556Z,7.83
2019-03-27T11:26:16.350Z,3.93
2019-03-27T11:28:45.894Z,3.93
2019-03-27T11:31:15.630Z,5.43
2019-03-27T11:33:45.393Z,4.30
2019-03-27T11:36:15.122Z,3.40
2019-03-27T11:38:44.890Z,3.20
2019-03-27T11:41:14.670Z,4.17
2019-03-27T11:43:54.181Z,4.13
2019-03-27T11:46:16.008Z,4.40
2019-03-27T11:48:46.038Z,8.30
2019-03-27T11:51:15.732Z,4.23
2019-03-27T11:53:45.238Z,5.80
2019-03-27T11:56:14.754Z,6.23
2019-03-27T11:58:46.735Z,8.23
2019-03-27T12:01:16.435Z,5.93
2019-03-27T12:03:46.407Z,8.23
2019-03-27T12:06:16.227Z,7.03
2019-03-27T12:08:45.952Z,5.50
2019-03-27T12:11:15.505Z,4.93
2019-03-27T12:13:45.252Z,3.67
2019-03-27T12:16:15.523Z,6.80
2019-03-27T12:18:47.156Z,5.50
2019-03-27T12:21:16.996Z,7.10
2019-03-27T12:23:46.953Z,7.47
2019-03-27T12:26:17.294Z,4.77
2019-03-27T12:28:47.744Z,4.33
2019-03-27T12:31:17.581Z,5.27
2019-03-27T12:33:47.365Z,4.63
2019-03-27T12:36:16.858Z,3.97
2019-03-27T12:38:46.699Z,7.17
2019-03-27T12:41:16.140Z,4.67
2019-03-27T12:43:45.837Z,6.07
2019-03-27T12:46:15.680Z,3.40
2019-03-27T12:48:45.039Z,4.00
2019-03-27T12:51:14.784Z,4.80
2019-03-27T12:53:44.604Z,4.43
2019-03-27T12:56:14.403Z,3.63
2019-03-27T12:58:44.157Z,6.13
2019-03-27T13:01:13.912Z,7.60
2019-03-27T13:03:44.622Z,3.43
2019-03-27T13:06:14.787Z,2.80
2019-03-27T13:08:44.563Z,3.70
2019-03-27T13:11:14.125Z,4.83
2019-03-27T13:13:45.942Z,6.70
2019-03-27T13:16:17.766Z,4.93
2019-03-27T13:18:50.304Z,5.43
2019-03-27T13:21:26.742Z,5.50
2019-03-27T13:23:57.934Z,4.57
2019-03-27T13:26:27.659Z,8.17
2019-03-27T13:28:57.230Z,4.53
2019-03-27T13:31:26.745Z,4.63
2019-03-27T13:33:56.572Z,5.63
2019-03-27T13:36:26.503Z,5.43
2019-03-27T13:38:56.200Z,4.00
2019-03-27T13:41:25.649Z,7.33
2019-03-27T13:43:55.749Z,3.73
2019-03-27T13:46:25.265Z,4.43
2019-03-27T13:48:54.878Z,5.50
2019-03-27T13:51:24.729Z,4.43
2019-03-27T13:53:55.857Z,3.10
2019-03-27T13:56:25.667Z,5.07
2019-03-27T13:58:55.367Z,4.97
2019-03-27T14:01:24.806Z,5.20
2019-03-27T14:03:54.620Z,4.93
2019-03-27T14:06:24.330Z,6.87
2019-03-27T14:08:53.866Z,4.17
2019-03-27T14:11:23.956Z,4.53
2019-03-27T14:13:53.472Z,4.07
2019-03-27T14:16:23.607Z,4.73
2019-03-27T14:18:53.306Z,3.37
2019-03-27T14:21:23.435Z,4.07
2019-03-27T14:23:53.133Z,5.83
2019-03-27T14:26:23.674Z,3.93
2019-03-27T14:28:53.314Z,3.87
2019-03-27T14:31:23.088Z,6.73
2019-03-27T14:33:52.824Z,3.43
2019-03-27T14:36:25.524Z,3.70
2019-03-27T14:38:56.753Z,4.40
2019-03-27T14:41:29.585Z,5.73
2019-03-27T14:44:00.028Z,4.10
2019-03-27T14:47:13.692Z,4.40
2019-03-27T14:50:00.496Z,6.77
2019-03-27T14:52:31.093Z,7.70
2019-03-27T14:55:03.299Z,6.73
2019-03-27T14:57:32.757Z,11.23
2019-03-27T15:00:02.613Z,7.97
2019-03-27T15:02:32.704Z,9.80
2019-03-27T15:05:03.389Z,5.93
2019-03-27T15:07:33.188Z,12.07
2019-03-27T15:10:03.123Z,4.83
2019-03-27T15:12:34.201Z,8.80
2019-03-27T15:15:04.321Z,9.07
2019-03-27T15:17:34.150Z,7.77
2019-03-27T15:20:04.405Z,9.40
2019-03-27T15:22:34.083Z,11.20
2019-03-27T15:25:04.084Z,11.90
2019-03-27T15:27:33.945Z,12.00
2019-03-27T15:30:03.595Z,19.67
2019-03-27T15:32:33.535Z,14.37
2019-03-27T15:35:03.718Z,14.33
2019-03-27T15:37:33.114Z,12.47
2019-03-27T15:40:02.600Z,20.87
2019-03-27T15:42:33.323Z,14.77
2019-03-27T15:45:03.372Z,26.40
2019-03-27T15:47:32.843Z,23.83
2019-03-27T15:50:02.481Z,20.27
2019-03-27T15:52:36.619Z,32.83
2019-03-27T15:55:05.985Z,24.43
2019-03-27T15:57:35.823Z,26.70
2019-03-27T16:00:06.537Z,21.10
2019-03-27T16:02:36.456Z,26.13
2019-03-27T16:05:06.987Z,29.20
2019-03-27T16:07:39.454Z,27.07
2019-03-27T16:10:10.528Z,21.50
2019-03-27T16:12:44.005Z,24.37
2019-03-27T16:15:14.353Z,19.77
2019-03-27T16:17:44.195Z,17.53
2019-03-27T16:20:14.137Z,22.37
2019-03-27T16:22:50.824Z,17.33
2019-03-27T16:25:30.144Z,16.63
2019-03-27T16:28:00.382Z,17.77
2019-03-27T16:30:30.015Z,22.23
2019-03-27T16:33:04.565Z,12.90
2019-03-27T16:35:34.438Z,15.53
2019-03-27T16:38:09.076Z,17.23
2019-03-27T16:40:46.368Z,18.47
2019-03-27T16:43:16.743Z,19.07
2019-03-27T16:45:46.879Z,16.07
2019-03-27T16:48:19.781Z,15.00
2019-03-27T16:50:49.628Z,17.37
2019-03-27T16:53:19.575Z,21.27
2019-03-27T16:55:49.529Z,20.10
2019-03-27T16:58:20.439Z,23.10
2019-03-27T17:00:50.149Z,16.93
2019-03-27T17:03:19.839Z,19.73
2019-03-27T17:05:54.084Z,21.70
2019-03-27T17:08:21.336Z,23.53
2019-03-27T17:10:51.050Z,24.83
2019-03-27T17:13:20.910Z,20.73
2019-03-27T17:15:51.577Z,22.00
2019-03-27T17:18:21.485Z,20.77
2019-03-27T17:20:51.001Z,19.40
2019-03-27T17:23:20.786Z,23.63
2019-03-27T17:25:50.362Z,21.60
2019-03-27T17:28:20.213Z,17.77
2019-03-27T17:30:49.967Z,14.80
2019-03-27T17:33:19.746Z,21.00
2019-03-27T17:35:49.405Z,17.80
2019-03-27T17:38:18.894Z,15.20
2019-03-27T17:40:48.713Z,19.77
2019-03-27T17:43:23.435Z,19.60
2019-03-27T17:45:53.172Z,17.60
2019-03-27T17:48:22.972Z,14.83
2019-03-27T17:50:52.781Z,15.20
2019-03-27T17:53:31.385Z,19.80
2019-03-27T17:55:54.159Z,17.87
2019-03-27T17:58:24.132Z,23.40
2019-03-27T18:00:55.542Z,21.93
2019-03-27T18:03:32.107Z,18.43
2019-03-27T18:06:01.727Z,29.67
2019-03-27T18:08:31.549Z,26.43
2019-03-27T18:11:01.424Z,23.40
2019-03-27T18:13:40.940Z,20.33
2019-03-27T18:16:11.098Z,29.20
2019-03-27T18:18:40.892Z,25.53
2019-03-27T18:21:12.955Z,25.00
2019-03-27T18:23:46.179Z,22.27
2019-03-27T18:26:14.549Z,21.13
2019-03-27T18:28:44.406Z,21.23
2019-03-27T18:31:14.176Z,20.77
2019-03-27T18:33:44.007Z,20.60
2019-03-27T18:36:13.969Z,22.70
2019-03-27T18:38:45.883Z,17.60
2019-03-27T18:41:16.011Z,19.20
2019-03-27T18:43:45.889Z,21.93
2019-03-27T18:46:15.883Z,22.10
2019-03-27T18:48:45.787Z,27.00
2019-03-27T18:51:16.036Z,24.50
2019-03-27T18:53:58.579Z,23.23
2019-03-27T18:56:17.034Z,25.47
2019-03-27T18:58:47.000Z,21.63
2019-03-27T19:01:17.131Z,18.83
2019-03-27T19:03:46.913Z,18.03
2019-03-27T19:06:16.691Z,20.13
2019-03-27T19:08:46.616Z,23.57
2019-03-27T19:11:16.107Z,17.00
2019-03-27T19:13:46.007Z,19.20
2019-03-27T19:16:15.707Z,27.33
2019-03-27T19:18:45.492Z,20.53
2019-03-27T19:21:15.168Z,24.77
2019-03-27T19:23:45.652Z,25.10
2019-03-27T19:26:15.556Z,26.50
2019-03-27T19:28:45.160Z,24.63
2019-03-27T19:31:14.733Z,26.70
2019-03-27T19:33:44.440Z,28.73
2019-03-27T19:36:16.782Z,25.30
2019-03-27T19:38:46.780Z,27.33
2019-03-27T19:41:16.598Z,29.23
2019-03-27T19:43:46.471Z,27.07
2019-03-27T19:46:16.309Z,26.07
2019-03-27T19:48:46.724Z,29.83
2019-03-27T19:51:16.780Z,32.73
2019-03-27T19:53:46.695Z,21.30
2019-03-27T19:56:16.480Z,27.03
2019-03-27T19:58:46.311Z,25.93
2019-03-27T20:01:19.087Z,26.03
2019-03-27T20:03:49.083Z,24.30
2019-03-27T20:06:22.852Z,28.03
2019-03-27T20:08:52.802Z,25.10
2019-03-27T20:11:22.425Z,25.97
2019-03-27T20:13:52.378Z,37.20
2019-03-27T20:16:22.117Z,23.83
2019-03-27T20:18:51.935Z,32.27
2019-03-27T20:21:21.483Z,27.00
2019-03-27T20:23:50.940Z,25.30
2019-03-27T20:26:20.353Z,21.43
2019-03-27T20:28:50.282Z,22.60
2019-03-27T20:31:20.196Z,26.83
2019-03-27T20:33:49.799Z,28.13
2019-03-27T20:36:21.849Z,24.67
2019-03-27T20:38:51.299Z,29.67
2019-03-27T20:41:21.139Z,33.47
2019-03-27T20:43:51.134Z,30.57
2019-03-27T20:46:26.358Z,30.43
2019-03-27T20:48:54.699Z,31.20
2019-03-27T20:51:27.808Z,27.37
2019-03-27T20:54:01.730Z,33.87
2019-03-27T20:56:31.934Z,27.97
2019-03-27T20:59:03.221Z,32.63
2019-03-27T21:01:33.096Z,27.40
2019-03-27T21:04:03.086Z,29.27
2019-03-27T21:06:33.665Z,36.53
2019-03-27T21:09:03.477Z,24.73
2019-03-27T21:11:33.052Z,21.70
2019-03-27T21:14:02.885Z,23.93
2019-03-27T21:16:32.417Z,27.83
2019-03-27T21:19:02.291Z,22.97
2019-03-27T21:21:32.136Z,27.07
2019-03-27T21:24:01.931Z,27.10
2019-03-27T21:26:31.748Z,23.07
2019-03-27T21:29:01.422Z,31.37
2019-03-27T21:31:30.859Z,30.83
2019-03-27T21:34:00.730Z,31.47
2019-03-27T21:36:30.172Z,32.67
2019-03-27T21:39:00.018Z,24.13
2019-03-27T21:41:30.194Z,28.60
2019-03-27T21:44:02.485Z,34.30
2019-03-27T21:46:32.316Z,23.03
2019-03-27T21:49:01.802Z,34.27
2019-03-27T21:51:31.617Z,32.33
2019-03-27T21:54:01.347Z,34.03
2019-03-27T21:56:31.749Z,39.27
2019-03-27T21:59:02.644Z,35.03
2019-03-27T22:01:32.298Z,30.53
2019-03-27T22:04:02.067Z,29.10
2019-03-27T22:06:31.512Z,39.33
2019-03-27T22:09:01.426Z,36.37
2019-03-27T22:11:30.949Z,34.67
2019-03-27T22:14:00.655Z,40.30
2019-03-27T22:16:30.380Z,36.87
2019-03-27T22:19:00.362Z,36.03
2019-03-27T22:21:29.845Z,39.53
2019-03-27T22:23:59.612Z,38.67
2019-03-27T22:26:29.154Z,44.53
2019-03-27T22:28:59.272Z,30.07
2019-03-27T22:31:29.111Z,43.97
2019-03-27T22:33:58.654Z,47.23
2019-03-27T22:36:28.154Z,37.93
2019-03-27T22:38:58.395Z,42.47
2019-03-27T22:41:28.717Z,36.87
2019-03-27T22:43:58.515Z,33.10
2019-03-27T22:46:28.188Z,39.47
2019-03-27T22:48:58.066Z,40.43
2019-03-27T22:51:27.880Z,33.17
2019-03-27T22:53:57.786Z,37.50
2019-03-27T22:56:28.126Z,45.97
2019-03-27T22:58:57.928Z,33.20
2019-03-27T23:01:31.467Z,34.63
2019-03-27T23:04:01.557Z,45.00
2019-03-27T23:06:31.287Z,35.23
2019-03-27T23:09:01.325Z,35.40
2019-03-27T23:11:31.093Z,33.17
2019-03-27T23:14:02.118Z,39.47
2019-03-27T23:16:33.824Z,34.93
2019-03-27T23:19:03.592Z,34.33
2019-03-27T23:21:33.067Z,36.80
2019-03-27T23:24:02.982Z,39.33
2019-03-27T23:26:33.714Z,36.80
2019-03-27T23:29:03.379Z,32.37
2019-03-27T23:31:33.037Z,34.10
2019-03-27T23:34:02.669Z,34.33
2019-03-27T23:36:32.433Z,32.80
2019-03-27T23:39:02.008Z,34.57
2019-03-27T23:41:31.982Z,36.43
2019-03-27T23:44:01.766Z,42.07
2019-03-27T23:46:31.629Z,36.37
2019-03-27T23:49:01.547Z,31.10
2019-03-27T23:51:31.101Z,35.37
2019-03-27T23:54:00.816Z,32.77
2019-03-27T23:56:30.514Z,38.00
2019-03-27T23:59:00.379Z,36.13
